Terminal Aerodrome Forecast
Issued by NWS

Current Version | Previous Version | Text Only | Print | Product List | Glossary On
Versions: 1 2 3 4 5 6 7 8 9 10 11 12 13 14 15 16 17 18
000
FTUS46 KLOX 242345
TAFWJF
TAF
KWJF 242345Z 2500/2524 23020G30KT 3SM FU BKN025 OVC035
     FM250500 23015KT 4SM FU BKN025 BKN120
     FM252000 23017G25KT 5SM FU BKN035=

USA.gov is the U.S. government's official web portal to all federal, state and local government web resources and services.